Time;durP1;ratioP1;P1;durP2;ratioP2;P2;SDS_P1;SDS_P2;PMS_P1;PMS_P2;Temp;Humidity;BMP_temperature;BMP_pressure;BME280_temperature;BME280_humidity;BME280_pressure;Samples;Min_cycle;Max_cycle;Signal;HPM_P1;HPM_P2
2023/08/07 00:01:42;;;;;;;5.90;2.53;;;14.50;99.90;;;;;;5026955;28;20248;-81
2023/08/07 00:04:09;;;;;;;4.33;2.40;;;14.50;99.90;;;;;;5039040;28;20250;-81
2023/08/07 00:06:36;;;;;;;4.53;2.90;;;14.50;99.90;;;;;;5052646;28;20238;-81
2023/08/07 00:09:05;;;;;;;3.43;2.40;;;14.50;99.90;;;;;;5035259;28;20223;-80
2023/08/07 00:11:32;;;;;;;5.07;2.03;;;14.40;99.90;;;;;;5049838;28;20230;-81
2023/08/07 00:13:59;;;;;;;3.93;2.40;;;14.40;99.90;;;;;;5046844;28;20661;-80
2023/08/07 00:16:26;;;;;;;3.77;2.30;;;14.40;99.90;;;;;;5035190;28;20225;-81
2023/08/07 00:18:55;;;;;;;3.80;2.20;;;14.40;99.90;;;;;;5032985;28;20229;-80
2023/08/07 00:21:22;;;;;;;3.87;2.40;;;14.40;99.90;;;;;;5053951;28;20574;-80
2023/08/07 00:23:50;;;;;;;3.23;2.37;;;14.40;99.90;;;;;;5044879;28;20230;-80
2023/08/07 00:26:18;;;;;;;3.33;2.07;;;14.40;99.90;;;;;;5044249;28;20221;-80
2023/08/07 00:28:45;;;;;;;4.20;1.80;;;14.40;99.90;;;;;;5025668;28;20234;-80
2023/08/07 00:31:12;;;;;;;3.63;1.90;;;14.40;99.90;;;;;;5049564;28;20226;-80
2023/08/07 00:33:40;;;;;;;3.00;2.10;;;14.30;99.90;;;;;;5050058;28;20482;-79
2023/08/07 00:36:08;;;;;;;3.93;2.37;;;14.30;99.90;;;;;;5030010;28;20224;-80
2023/08/07 00:38:35;;;;;;;2.10;1.87;;;14.30;99.90;;;;;;5041706;28;20231;-80
2023/08/07 00:41:02;;;;;;;2.20;1.77;;;14.30;99.90;;;;;;5043244;28;20219;-80
2023/08/07 00:43:30;;;;;;;6.27;2.10;;;14.30;99.90;;;;;;5050090;28;20392;-80
2023/08/07 00:45:57;;;;;;;3.50;2.03;;;14.30;99.90;;;;;;5032429;28;20695;-79
2023/08/07 00:48:24;;;;;;;4.40;1.87;;;14.30;99.90;;;;;;5032176;28;20766;-80
2023/08/07 00:50:52;;;;;;;4.13;1.90;;;14.30;99.90;;;;;;5049457;28;20269;-79
2023/08/07 00:53:19;;;;;;;2.33;1.80;;;14.30;99.90;;;;;;5037750;28;20299;-80
2023/08/07 00:55:47;;;;;;;2.73;1.63;;;14.30;99.90;;;;;;5031347;28;20227;-80
2023/08/07 00:58:14;;;;;;;2.90;2.00;;;14.20;99.90;;;;;;5041746;28;20314;-80
2023/08/07 01:00:43;;;;;;;3.63;2.13;;;14.20;99.90;;;;;;5049990;28;20218;-80
2023/08/07 01:03:12;;;;;;;4.83;2.10;;;14.20;99.90;;;;;;5026043;28;20228;-80
2023/08/07 01:05:39;;;;;;;4.07;1.90;;;14.20;99.90;;;;;;5033648;28;20288;-80
2023/08/07 01:08:06;;;;;;;4.87;2.10;;;14.20;99.90;;;;;;5032069;28;20795;-80
2023/08/07 01:10:44;;;;;;;5.30;2.00;;;14.10;99.90;;;;;;5030492;28;20252;-80
2023/08/07 01:13:19;;;;;;;3.73;1.90;;;14.10;99.90;;;;;;5030087;28;20235;-80
2023/08/07 01:15:49;;;;;;;3.20;1.90;;;14.10;99.90;;;;;;5027257;28;20260;-81
2023/08/07 01:18:17;;;;;;;3.50;1.90;;;14.10;99.90;;;;;;5058031;28;20242;-81
2023/08/07 01:20:44;;;;;;;4.77;1.90;;;14.00;99.90;;;;;;5045065;28;20316;-80
2023/08/07 01:23:12;;;;;;;5.70;2.07;;;14.00;99.90;;;;;;5053071;28;20420;-80
2023/08/07 01:25:39;;;;;;;4.27;2.00;;;14.00;99.90;;;;;;5033006;28;20229;-80
2023/08/07 01:28:14;;;;;;;2.47;1.83;;;13.90;99.90;;;;;;5051864;28;20597;-80
2023/08/07 01:30:46;;;;;;;3.27;1.60;;;13.90;99.90;;;;;;5043652;28;20224;-80
2023/08/07 01:33:20;;;;;;;3.30;1.67;;;13.90;99.90;;;;;;5037297;28;20803;-80
2023/08/07 01:35:52;;;;;;;4.27;2.03;;;13.80;99.90;;;;;;5062658;28;20274;-79
2023/08/07 01:38:24;;;;;;;2.77;1.80;;;13.80;99.90;;;;;;5040043;28;20289;-80
2023/08/07 01:40:52;;;;;;;3.70;1.60;;;13.80;99.90;;;;;;5029654;28;20232;-80
2023/08/07 01:43:20;;;;;;;6.67;1.57;;;13.80;99.90;;;;;;5034156;28;20785;-80
2023/08/07 01:45:47;;;;;;;2.83;1.90;;;13.70;99.90;;;;;;5050650;28;20226;-80
2023/08/07 01:48:13;;;;;;;1.97;1.67;;;13.70;99.90;;;;;;5052936;28;20260;-79
2023/08/07 01:50:40;;;;;;;2.70;1.50;;;13.70;99.90;;;;;;5031118;28;20225;-80
2023/08/07 01:53:07;;;;;;;2.47;1.50;;;13.70;99.90;;;;;;5033515;28;20307;-80
2023/08/07 01:55:35;;;;;;;5.97;1.53;;;13.70;99.90;;;;;;5032036;28;21080;-80
2023/08/07 01:58:02;;;;;;;4.57;2.00;;;13.60;99.90;;;;;;5050378;28;20226;-80
2023/08/07 02:00:29;;;;;;;3.30;1.80;;;13.60;99.90;;;;;;5041614;28;20232;-79
2023/08/07 02:02:55;;;;;;;2.87;1.70;;;13.60;99.90;;;;;;5069705;28;20231;-79
2023/08/07 02:05:22;;;;;;;3.53;1.83;;;13.60;99.90;;;;;;5044281;28;20312;-79
2023/08/07 02:07:49;;;;;;;2.73;1.70;;;13.60;99.90;;;;;;5036763;28;20718;-80
2023/08/07 02:10:16;;;;;;;4.73;2.00;;;13.60;99.90;;;;;;5038480;28;20236;-80
2023/08/07 02:12:45;;;;;;;3.83;1.60;;;13.50;99.90;;;;;;5043341;28;20230;-79
2023/08/07 02:15:11;;;;;;;3.60;1.50;;;13.50;99.90;;;;;;5037267;28;20227;-79
2023/08/07 02:17:41;;;;;;;3.73;1.90;;;13.50;99.90;;;;;;5037711;28;20250;-79
2023/08/07 02:20:09;;;;;;;3.40;1.90;;;13.50;99.90;;;;;;5062711;28;20227;-78
2023/08/07 02:22:36;;;;;;;4.37;1.67;;;13.50;99.90;;;;;;5030381;28;20227;-79
2023/08/07 02:25:03;;;;;;;3.40;1.77;;;13.50;99.90;;;;;;5037337;28;20292;-79
2023/08/07 02:27:30;;;;;;;2.73;1.50;;;13.40;99.90;;;;;;5052301;28;20229;-78
2023/08/07 02:29:58;;;;;;;4.07;2.13;;;13.40;99.90;;;;;;5033700;28;20227;-79
2023/08/07 02:32:25;;;;;;;4.07;1.63;;;13.40;99.90;;;;;;5033155;28;20234;-79
2023/08/07 02:34:54;;;;;;;2.73;1.53;;;13.40;99.90;;;;;;5032409;28;20228;-81
2023/08/07 02:37:24;;;;;;;2.63;1.50;;;13.40;99.90;;;;;;5035205;28;20281;-80
2023/08/07 02:39:51;;;;;;;3.97;1.60;;;13.40;99.90;;;;;;5029382;28;20265;-81
2023/08/07 02:42:18;;;;;;;3.03;1.67;;;13.40;99.90;;;;;;5034885;28;20232;-80
2023/08/07 02:44:45;;;;;;;4.27;2.07;;;13.40;99.90;;;;;;5053141;28;20224;-80
2023/08/07 02:47:13;;;;;;;3.80;1.87;;;13.40;99.90;;;;;;5029783;28;20481;-80
2023/08/07 02:49:40;;;;;;;3.37;1.83;;;13.40;99.90;;;;;;5040509;28;20288;-80
2023/08/07 02:52:08;;;;;;;2.60;1.73;;;13.40;99.90;;;;;;5044079;28;20648;-81
2023/08/07 02:54:34;;;;;;;2.43;1.97;;;13.40;99.90;;;;;;5035430;28;20361;-80
2023/08/07 02:57:01;;;;;;;5.93;2.03;;;13.40;99.90;;;;;;5017917;28;20311;-79
2023/08/07 02:59:28;;;;;;;3.10;1.80;;;13.40;99.90;;;;;;5038135;28;20635;-79
2023/08/07 03:01:55;;;;;;;3.97;2.27;;;13.40;99.90;;;;;;5018906;28;20657;-81
2023/08/07 03:04:23;;;;;;;4.03;1.97;;;13.40;99.90;;;;;;5051761;28;20218;-80
2023/08/07 03:06:49;;;;;;;3.70;1.97;;;13.40;99.90;;;;;;5039616;28;20227;-80
2023/08/07 03:09:16;;;;;;;3.67;2.30;;;13.40;99.90;;;;;;5029404;28;20516;-80
2023/08/07 03:11:43;;;;;;;3.43;1.83;;;13.40;99.90;;;;;;5050673;28;20235;-80
2023/08/07 03:14:09;;;;;;;3.80;1.90;;;13.40;99.90;;;;;;5028838;28;20310;-80
2023/08/07 03:16:36;;;;;;;3.17;1.80;;;13.40;99.90;;;;;;5053583;28;20247;-79
2023/08/07 03:19:03;;;;;;;2.87;1.90;;;13.50;99.90;;;;;;5035017;28;20225;-80
2023/08/07 03:21:31;;;;;;;7.10;2.40;;;13.50;99.90;;;;;;5052713;28;20260;-80
2023/08/07 03:23:57;;;;;;;3.40;1.90;;;13.50;99.90;;;;;;5038364;28;20221;-80
2023/08/07 03:26:24;;;;;;;2.63;1.70;;;13.60;99.90;;;;;;5034263;28;20260;-81
2023/08/07 03:28:51;;;;;;;2.83;1.77;;;13.60;99.90;;;;;;5063308;28;20819;-80
2023/08/07 03:31:18;;;;;;;4.97;2.10;;;13.70;99.90;;;;;;5035926;28;20255;-80
2023/08/07 03:33:46;;;;;;;3.83;1.73;;;13.70;99.90;;;;;;5041546;28;20219;-79
2023/08/07 03:36:14;;;;;;;3.87;2.17;;;13.70;99.90;;;;;;5036136;28;20247;-79
2023/08/07 03:38:43;;;;;;;3.27;1.70;;;13.80;99.90;;;;;;5040883;28;20246;-79
2023/08/07 03:41:10;;;;;;;2.07;1.50;;;13.80;99.90;;;;;;5032146;28;20229;-80
2023/08/07 03:43:40;;;;;;;2.77;1.63;;;13.90;99.90;;;;;;5041172;28;20312;-80
2023/08/07 03:46:07;;;;;;;4.90;2.13;;;13.90;99.90;;;;;;5028389;28;20297;-79
2023/08/07 03:48:33;;;;;;;2.53;1.60;;;13.90;99.90;;;;;;5053273;28;20325;-80
2023/08/07 03:51:08;;;;;;;6.70;1.67;;;13.90;99.90;;;;;;5027605;28;20229;-80
2023/08/07 03:53:38;;;;;;;2.10;1.50;;;14.00;99.90;;;;;;5052390;28;20697;-81
2023/08/07 03:56:06;;;;;;;4.57;1.73;;;14.00;99.90;;;;;;5025155;28;20317;-81
2023/08/07 03:58:34;;;;;;;6.60;2.03;;;14.00;99.90;;;;;;5019990;28;20240;-80
2023/08/07 04:01:01;;;;;;;4.27;1.77;;;14.00;99.90;;;;;;5047660;28;20224;-80
2023/08/07 04:03:27;;;;;;;2.87;1.90;;;14.00;99.90;;;;;;5038198;28;20227;-81
2023/08/07 04:05:55;;;;;;;4.63;1.80;;;14.00;99.90;;;;;;5028214;28;20293;-80
2023/08/07 04:08:23;;;;;;;5.20;1.83;;;13.90;99.90;;;;;;5027210;28;20287;-80
2023/08/07 04:10:59;;;;;;;5.50;1.70;;;13.90;99.90;;;;;;5036020;28;20227;-82
2023/08/07 04:13:28;;;;;;;2.10;1.60;;;13.90;99.90;;;;;;5029098;28;20230;-81
2023/08/07 04:15:55;;;;;;;4.67;1.90;;;13.90;99.90;;;;;;5062622;28;20246;-81
2023/08/07 04:18:22;;;;;;;4.80;1.70;;;13.90;99.90;;;;;;5024359;28;20657;-82
2023/08/07 04:20:51;;;;;;;3.77;1.90;;;13.90;99.90;;;;;;5042965;28;20313;-81
2023/08/07 04:23:23;;;;;;;5.40;1.90;;;13.90;99.90;;;;;;5069975;22;20235;-91
2023/08/07 04:25:51;;;;;;;7.27;2.00;;;13.90;99.90;;;;;;5025555;28;20973;-89
2023/08/07 04:28:18;;;;;;;3.33;1.73;;;13.90;99.90;;;;;;5029046;28;20218;-89
2023/08/07 04:30:50;;;;;;;4.93;2.20;;;13.90;99.90;;;;;;5061027;28;20757;-89
2023/08/07 04:33:17;;;;;;;6.47;2.23;;;14.00;99.90;;;;;;5063549;28;20311;-90
2023/08/07 04:35:46;;;;;;;4.63;1.97;;;13.90;99.90;;;;;;5053493;28;20308;-91
2023/08/07 04:38:13;;;;;;;4.87;2.47;;;14.00;99.90;;;;;;5029230;28;20249;-89
2023/08/07 04:40:45;;;;;;;4.33;1.93;;;14.00;99.90;;;;;;5059306;28;20238;-91
2023/08/07 04:43:12;;;;;;;6.00;2.20;;;14.00;99.90;;;;;;5059731;28;20230;-90
2023/08/07 04:45:39;;;;;;;5.27;2.20;;;14.00;99.90;;;;;;5048268;28;20218;-89
2023/08/07 04:48:07;;;;;;;6.50;2.40;;;14.00;99.90;;;;;;5033719;28;20664;-90
2023/08/07 04:50:34;;;;;;;3.47;1.83;;;14.10;99.90;;;;;;5035287;28;20226;-89
2023/08/07 04:53:01;;;;;;;8.77;2.60;;;14.10;99.90;;;;;;5061773;28;20231;-90
2023/08/07 04:55:28;;;;;;;5.77;2.20;;;14.10;99.90;;;;;;5061209;28;20222;-89
2023/08/07 04:57:56;;;;;;;4.63;1.90;;;14.10;99.90;;;;;;5045725;28;20278;-90
2023/08/07 05:00:23;;;;;;;7.67;2.60;;;14.10;99.90;;;;;;5029664;28;20219;-90
2023/08/07 05:02:49;;;;;;;6.27;2.27;;;14.20;99.90;;;;;;5048192;28;20228;-90
2023/08/07 05:05:18;;;;;;;5.70;2.20;;;14.20;99.90;;;;;;5029893;28;20232;-90
2023/08/07 05:07:45;;;;;;;6.33;2.13;;;14.20;99.90;;;;;;5049274;28;20230;-91
2023/08/07 05:10:12;;;;;;;6.30;2.40;;;14.30;99.90;;;;;;5032739;28;20900;-90
2023/08/07 05:12:39;;;;;;;6.07;2.07;;;14.30;99.90;;;;;;5064931;28;20227;-90
2023/08/07 05:15:07;;;;;;;4.53;2.10;;;14.30;99.90;;;;;;5036074;28;20233;-90
2023/08/07 05:17:36;;;;;;;5.13;2.17;;;14.40;99.90;;;;;;5064934;28;20699;-92
2023/08/07 05:20:03;;;;;;;5.07;2.30;;;14.40;99.90;;;;;;5025500;28;20247;-91
2023/08/07 05:22:43;;;;;;;6.70;2.10;;;14.50;99.90;;;;;;5032869;28;21029;-91
2023/08/07 05:25:15;;;;;;;7.63;2.43;;;14.40;99.90;;;;;;5043991;28;20234;-90
2023/08/07 05:27:42;;;;;;;8.63;2.33;;;14.60;99.90;;;;;;5046436;28;20223;-91
2023/08/07 05:30:09;;;;;;;6.83;2.40;;;14.60;99.90;;;;;;5061884;28;20314;-90
2023/08/07 05:32:37;;;;;;;5.67;2.57;;;14.60;99.90;;;;;;5047348;28;20253;-90
2023/08/07 05:35:04;;;;;;;6.30;2.43;;;14.70;99.90;;;;;;5068877;28;20299;-90
2023/08/07 05:37:31;;;;;;;7.20;2.23;;;14.70;99.90;;;;;;5052628;28;20226;-90
2023/08/07 05:40:00;;;;;;;5.30;2.37;;;14.80;99.90;;;;;;5063175;28;20230;-90
2023/08/07 05:42:26;;;;;;;5.57;2.47;;;14.80;99.90;;;;;;5036754;28;20315;-90
2023/08/07 05:44:53;;;;;;;4.70;2.20;;;14.90;99.90;;;;;;5064178;28;20222;-90
2023/08/07 05:47:20;;;;;;;8.00;2.53;;;14.90;99.90;;;;;;5030777;28;20287;-89
2023/08/07 05:49:47;;;;;;;5.97;2.07;;;15.00;99.90;;;;;;5068305;28;20237;-89
2023/08/07 05:52:15;;;;;;;7.97;2.40;;;15.00;99.90;;;;;;5061323;28;20279;-89
2023/08/07 05:55:03;;;;;;;8.90;2.57;;;15.10;99.90;;;;;;5049672;28;20249;-93
2023/08/07 05:57:31;;;;;;;4.50;2.10;;;15.10;99.90;;;;;;5058795;28;20222;-92
2023/08/07 06:00:01;;;;;;;7.90;2.27;;;15.20;99.90;;;;;;5027949;28;20253;-89
2023/08/07 06:02:39;;;;;;;6.70;2.27;;;15.20;99.90;;;;;;5030882;28;20825;-89
2023/08/07 06:05:22;;;;;;;6.57;2.23;;;15.20;99.90;;;;;;5039421;28;20311;-93
2023/08/07 06:07:49;;;;;;;5.27;2.10;;;15.30;99.90;;;;;;5053714;28;20877;-91
2023/08/07 06:10:18;;;;;;;6.00;2.27;;;15.30;99.90;;;;;;5050744;28;20779;-89
2023/08/07 06:12:51;;;;;;;3.43;2.17;;;15.40;99.90;;;;;;5065397;28;20325;-90
2023/08/07 06:15:18;;;;;;;7.50;2.07;;;15.50;99.90;;;;;;5028228;28;20679;-89
2023/08/07 06:17:44;;;;;;;4.67;2.53;;;15.50;99.90;;;;;;5063542;28;20222;-89
2023/08/07 06:20:15;;;;;;;5.20;2.00;;;15.50;99.90;;;;;;5056241;28;20593;-89
2023/08/07 06:22:42;;;;;;;7.37;2.50;;;15.60;99.90;;;;;;5048647;28;20246;-90
2023/08/07 06:25:12;;;;;;;7.43;2.80;;;15.60;99.90;;;;;;5032540;28;20295;-91
2023/08/07 06:27:50;;;;;;;8.40;2.73;;;15.70;99.90;;;;;;5033667;28;20229;-93
2023/08/07 06:30:21;;;;;;;7.77;2.40;;;15.70;99.90;;;;;;5058050;28;20227;-89
2023/08/07 06:32:48;;;;;;;9.77;2.50;;;15.80;99.90;;;;;;5025387;28;20222;-88
2023/08/07 06:35:14;;;;;;;5.60;2.53;;;15.80;99.90;;;;;;5058225;28;20227;-89
2023/08/07 06:37:41;;;;;;;6.83;2.60;;;15.90;99.90;;;;;;5044795;28;20230;-89
2023/08/07 06:40:09;;;;;;;8.67;3.00;;;15.90;99.90;;;;;;5059240;28;20835;-88
2023/08/07 06:42:38;;;;;;;8.40;2.73;;;16.00;99.90;;;;;;5042911;28;20306;-89
2023/08/07 06:45:12;;;;;;;10.03;2.57;;;16.00;99.90;;;;;;5060241;28;20263;-89
2023/08/07 06:47:40;;;;;;;6.60;2.40;;;16.10;99.90;;;;;;5043104;28;20247;-90
2023/08/07 06:50:07;;;;;;;9.33;3.03;;;16.20;99.90;;;;;;5031663;28;20285;-90
2023/08/07 06:52:34;;;;;;;11.13;3.23;;;16.20;99.90;;;;;;5040721;28;20640;-87
2023/08/07 06:55:01;;;;;;;11.40;2.87;;;16.30;99.90;;;;;;5027043;28;20331;-90
2023/08/07 06:57:28;;;;;;;11.57;2.97;;;16.30;99.90;;;;;;5027597;28;20222;-88
2023/08/07 06:59:55;;;;;;;11.63;2.77;;;16.30;99.90;;;;;;5063686;28;20545;-89
2023/08/07 07:02:21;;;;;;;9.50;2.90;;;16.30;99.90;;;;;;5059177;28;20235;-89
2023/08/07 07:04:50;;;;;;;9.17;2.97;;;16.30;99.90;;;;;;5046411;28;20310;-90
2023/08/07 07:07:16;;;;;;;10.73;3.30;;;16.30;99.90;;;;;;5028128;28;20250;-89
2023/08/07 07:09:43;;;;;;;12.13;2.97;;;16.30;99.90;;;;;;5069215;28;20718;-88
2023/08/07 07:12:10;;;;;;;14.10;3.10;;;16.40;99.90;;;;;;5026495;28;20247;-90
2023/08/07 07:14:37;;;;;;;8.17;2.93;;;16.40;99.90;;;;;;5041991;28;20220;-88
2023/08/07 07:17:03;;;;;;;10.33;3.03;;;16.50;99.90;;;;;;5062274;28;20584;-88
2023/08/07 07:19:30;;;;;;;7.80;2.90;;;16.60;99.90;;;;;;5043326;28;20231;-89
2023/08/07 07:21:58;;;;;;;9.23;3.10;;;16.60;99.90;;;;;;5046107;28;20235;-88
2023/08/07 07:24:25;;;;;;;9.50;3.33;;;16.70;99.90;;;;;;5065375;28;20229;-89
2023/08/07 07:26:51;;;;;;;8.40;2.93;;;16.70;99.90;;;;;;5041948;28;20748;-88
2023/08/07 07:29:19;;;;;;;11.37;3.30;;;16.90;99.90;;;;;;5042142;28;20256;-87
2023/08/07 07:31:46;;;;;;;8.10;2.80;;;17.00;99.90;;;;;;5060111;28;20223;-88
2023/08/07 07:34:13;;;;;;;10.37;3.13;;;17.20;99.90;;;;;;5026748;28;20231;-88
2023/08/07 07:36:40;;;;;;;9.40;3.60;;;17.40;99.90;;;;;;5029507;28;20780;-87
2023/08/07 07:39:09;;;;;;;10.73;3.43;;;17.50;99.90;;;;;;5041520;28;20242;-88
2023/08/07 07:41:36;;;;;;;8.30;3.07;;;17.60;99.90;;;;;;5065598;28;20216;-88
2023/08/07 07:44:06;;;;;;;10.47;3.37;;;17.60;99.90;;;;;;5061882;28;20215;-92
2023/08/07 07:46:33;;;;;;;11.37;3.43;;;17.50;99.90;;;;;;5035271;28;20218;-91
2023/08/07 07:49:00;;;;;;;10.37;2.93;;;17.50;99.90;;;;;;5006334;28;20244;-89
2023/08/07 07:51:29;;;;;;;6.27;3.17;;;17.40;99.90;;;;;;5027358;28;20304;-88
2023/08/07 07:53:55;;;;;;;7.40;2.83;;;17.30;99.90;;;;;;5060408;28;20255;-89
2023/08/07 07:56:23;;;;;;;10.63;3.20;;;17.30;99.90;;;;;;5062327;28;20302;-90
2023/08/07 07:58:50;;;;;;;8.37;3.00;;;17.40;99.90;;;;;;5060449;28;20230;-89
2023/08/07 08:01:17;;;;;;;7.67;3.20;;;17.50;99.90;;;;;;5062541;28;20721;-87
2023/08/07 08:03:45;;;;;;;10.27;3.07;;;17.80;99.90;;;;;;5060894;28;20611;-89
2023/08/07 08:06:12;;;;;;;10.77;3.27;;;18.00;99.90;;;;;;5057379;28;20701;-88
2023/08/07 08:08:39;;;;;;;14.82;3.10;;;18.30;99.90;;;;;;5025461;28;20680;-87
2023/08/07 08:11:06;;;;;;;11.67;3.70;;;18.60;99.90;;;;;;5055915;28;20223;-88
2023/08/07 08:13:35;;;;;;;11.87;3.70;;;18.80;99.90;;;;;;5052477;28;20243;-91
2023/08/07 08:16:02;;;;;;;7.90;3.13;;;18.90;99.90;;;;;;5060222;28;20229;-91
2023/08/07 08:18:29;;;;;;;7.00;2.70;;;19.00;99.90;;;;;;5061141;28;20303;-86
2023/08/07 08:20:55;;;;;;;9.83;2.90;;;19.10;99.90;;;;;;5043679;28;20692;-90
2023/08/07 08:23:22;;;;;;;21.73;3.60;;;18.90;99.90;;;;;;5019575;28;20243;-86
2023/08/07 08:25:50;;;;;;;13.00;3.47;;;18.80;99.90;;;;;;5026700;28;20273;-90
2023/08/07 08:28:18;;;;;;;9.77;3.53;;;18.60;99.90;;;;;;5049947;28;20234;-90
2023/08/07 08:30:46;;;;;;;10.03;2.53;;;18.40;99.90;;;;;;5021580;28;20244;-90
2023/08/07 08:33:14;;;;;;;11.43;3.53;;;18.20;99.90;;;;;;5050696;28;20231;-91
2023/08/07 08:35:41;;;;;;;10.10;3.37;;;18.00;99.90;;;;;;5063271;28;20336;-90
2023/08/07 08:38:08;;;;;;;10.83;3.60;;;17.90;99.90;;;;;;5058517;28;20283;-90
2023/08/07 08:40:35;;;;;;;12.57;3.53;;;17.80;99.90;;;;;;5055664;28;20567;-90
2023/08/07 08:43:02;;;;;;;11.33;3.30;;;17.80;99.90;;;;;;5040388;28;20327;-91
2023/08/07 08:45:33;;;;;;;11.87;3.40;;;17.90;99.90;;;;;;5043273;28;20219;-93
2023/08/07 08:48:03;;;;;;;10.03;3.60;;;17.90;99.90;;;;;;5046185;28;20235;-93
2023/08/07 08:50:30;;;;;;;11.90;3.37;;;18.00;99.90;;;;;;5079793;28;20278;-96
2023/08/07 08:52:58;;;;;;;13.60;3.97;;;17.90;99.90;;;;;;5063481;28;20223;-93
2023/08/07 08:55:26;;;;;;;8.50;3.37;;;17.90;99.90;;;;;;5063569;28;20227;-90
2023/08/07 08:57:54;;;;;;;13.00;4.10;;;17.80;99.90;;;;;;5071065;28;20212;-94
2023/08/07 09:00:30;;;;;;;11.27;3.63;;;17.60;99.90;;;;;;5066548;28;20223;-95
2023/08/07 09:03:45;;;;;;;12.13;3.53;;;17.50;99.90;;;;;;5046997;28;20206;-96
2023/08/07 09:06:36;;;;;;;10.30;3.60;;;17.20;99.90;;;;;;5043233;23;20293;-80
2023/08/07 09:09:03;;;;;;;13.13;3.80;;;16.90;99.90;;;;;;5041496;28;20246;-79
2023/08/07 09:11:31;;;;;;;12.87;4.03;;;16.60;99.90;;;;;;5020640;28;20308;-79
2023/08/07 09:13:59;;;;;;;8.37;3.07;;;16.40;99.90;;;;;;5024495;28;20760;-79
2023/08/07 09:16:27;;;;;;;10.70;3.10;;;16.20;99.90;;;;;;5033362;28;20250;-79
2023/08/07 09:18:55;;;;;;;11.97;3.73;;;16.00;99.90;;;;;;5037204;28;20616;-79
2023/08/07 09:21:22;;;;;;;12.17;3.97;;;15.80;99.90;;;;;;5037838;28;20591;-79
2023/08/07 09:23:49;;;;;;;11.17;3.60;;;15.60;99.90;;;;;;5037469;28;20273;-80
2023/08/07 09:26:23;;;;;;;13.50;3.87;;;15.60;99.90;;;;;;5031720;28;20728;-80
2023/08/07 09:28:52;;;;;;;12.07;3.80;;;15.60;99.90;;;;;;5037113;28;20229;-79
2023/08/07 09:31:18;;;;;;;20.40;4.00;;;15.70;99.90;;;;;;5041920;28;20235;-80
2023/08/07 09:33:48;;;;;;;12.60;3.57;;;16.00;99.90;;;;;;5041936;28;20234;-80
2023/08/07 09:36:17;;;;;;;13.93;3.30;;;16.30;99.90;;;;;;5024266;28;20219;-80
2023/08/07 09:38:43;;;;;;;10.40;3.63;;;16.50;99.90;;;;;;5043521;28;20270;-80
2023/08/07 09:41:10;;;;;;;11.73;4.23;;;16.80;99.90;;;;;;5024146;28;20226;-80
2023/08/07 09:43:37;;;;;;;12.83;3.20;;;16.90;99.90;;;;;;5035162;28;20740;-80
2023/08/07 09:46:05;;;;;;;11.53;3.73;;;17.10;99.90;;;;;;5040396;28;20237;-80
2023/08/07 09:48:33;;;;;;;10.73;2.93;;;17.10;99.90;;;;;;5025697;28;20258;-80
2023/08/07 09:51:02;;;;;;;10.70;3.10;;;17.10;99.90;;;;;;5046276;28;20234;-80
2023/08/07 09:53:30;;;;;;;11.00;3.40;;;17.00;99.90;;;;;;5040828;28;20897;-80
2023/08/07 09:55:58;;;;;;;9.67;3.47;;;17.00;99.90;;;;;;5045372;28;20220;-81
2023/08/07 09:58:25;;;;;;;13.33;3.60;;;17.00;99.90;;;;;;5025403;28;20611;-80
2023/08/07 10:00:53;;;;;;;8.73;3.00;;;17.10;99.90;;;;;;5042449;28;20242;-80
2023/08/07 10:03:20;;;;;;;11.40;2.70;;;17.30;99.90;;;;;;5042421;28;20275;-80
2023/08/07 10:05:47;;;;;;;10.23;3.20;;;17.60;99.90;;;;;;5043560;28;20212;-80
2023/08/07 10:08:14;;;;;;;7.80;2.63;;;18.00;99.90;;;;;;5040397;28;20231;-80
2023/08/07 10:10:42;;;;;;;8.17;2.87;;;18.30;99.90;;;;;;5038078;28;20225;-80
2023/08/07 10:13:09;;;;;;;10.02;2.90;;;18.60;99.90;;;;;;5022753;28;20228;-80
2023/08/07 10:15:36;;;;;;;9.13;2.70;;;18.90;99.90;;;;;;5037392;28;20236;-80
2023/08/07 10:18:04;;;;;;;11.75;3.13;;;19.20;99.90;;;;;;5042154;28;20239;-80
2023/08/07 10:20:31;;;;;;;6.53;2.50;;;19.50;99.90;;;;;;5026842;28;20232;-80
2023/08/07 10:23:01;;;;;;;9.10;2.80;;;19.80;99.90;;;;;;5024517;28;20220;-80
2023/08/07 10:25:29;;;;;;;6.75;2.38;;;20.00;99.80;;;;;;5041785;28;20604;-80
2023/08/07 10:28:00;;;;;;;6.68;2.75;;;20.10;99.90;;;;;;5046832;28;20234;-80
2023/08/07 10:30:28;;;;;;;8.75;2.72;;;20.30;99.40;;;;;;5043226;28;20751;-81
2023/08/07 10:32:55;;;;;;;8.73;2.80;;;20.40;99.40;;;;;;5042374;28;20217;-80
2023/08/07 10:35:25;;;;;;;7.68;2.80;;;20.60;98.80;;;;;;5044529;28;20738;-80
2023/08/07 10:37:53;;;;;;;7.75;2.75;;;20.80;98.80;;;;;;5037802;28;20228;-80
2023/08/07 10:40:22;;;;;;;8.43;2.72;;;21.10;98.90;;;;;;5038622;28;20224;-80
2023/08/07 10:42:56;;;;;;;7.68;3.00;;;21.30;97.80;;;;;;5017827;28;20694;-79
2023/08/07 10:45:24;;;;;;;7.95;2.60;;;21.40;96.10;;;;;;5029169;28;20606;-78
2023/08/07 10:48:06;;;;;;;8.88;2.97;;;21.50;95.80;;;;;;5022132;28;20223;-78
2023/08/07 10:50:33;;;;;;;8.00;2.55;;;21.50;96.10;;;;;;5039440;28;20227;-78
2023/08/07 10:53:01;;;;;;;7.82;2.72;;;21.40;96.50;;;;;;5042328;28;20220;-79
2023/08/07 10:55:32;;;;;;;13.20;2.67;;;21.40;96.40;;;;;;5035871;28;20841;-79
2023/08/07 10:58:00;;;;;;;4.45;2.40;;;21.30;95.30;;;;;;5035072;28;20702;-79
2023/08/07 11:00:28;;;;;;;7.80;2.40;;;21.20;96.10;;;;;;5034361;28;20220;-79
2023/08/07 11:02:58;;;;;;;8.23;2.97;;;21.20;95.30;;;;;;5032905;28;20213;-79
2023/08/07 11:05:25;;;;;;;8.32;2.58;;;21.30;95.50;;;;;;5036632;28;20228;-78
2023/08/07 11:07:54;;;;;;;8.40;2.40;;;21.20;95.50;;;;;;5018541;28;20729;-78
2023/08/07 11:10:21;;;;;;;10.07;2.88;;;21.10;95.30;;;;;;5033620;28;20789;-79
2023/08/07 11:12:49;;;;;;;8.52;2.55;;;21.00;96.30;;;;;;5036435;28;20686;-79
2023/08/07 11:15:16;;;;;;;7.00;2.72;;;20.90;95.60;;;;;;5034896;28;20228;-78
2023/08/07 11:17:46;;;;;;;7.72;2.53;;;20.90;96.90;;;;;;5041456;28;20227;-78
2023/08/07 11:20:12;;;;;;;5.03;2.33;;;21.00;97.20;;;;;;5018284;28;20235;-79
2023/08/07 11:22:41;;;;;;;8.88;2.75;;;21.20;96.90;;;;;;5039530;28;20718;-78
2023/08/07 11:25:13;;;;;;;9.05;2.85;;;21.40;96.70;;;;;;5021420;28;20267;-80
2023/08/07 11:27:40;;;;;;;7.05;2.40;;;21.60;95.70;;;;;;5047106;28;20241;-81
2023/08/07 11:30:11;;;;;;;6.93;2.67;;;21.80;96.00;;;;;;5042122;28;20235;-81
2023/08/07 11:32:38;;;;;;;6.63;2.15;;;21.80;95.30;;;;;;5026803;28;21120;-80
2023/08/07 11:35:08;;;;;;;9.00;2.85;;;21.70;94.80;;;;;;5045755;28;20606;-81
2023/08/07 11:37:34;;;;;;;8.70;2.65;;;21.60;95.40;;;;;;5028355;28;20326;-81
2023/08/07 11:40:02;;;;;;;5.13;2.20;;;21.50;96.00;;;;;;5049072;28;20228;-81
2023/08/07 11:42:29;;;;;;;6.65;2.42;;;21.40;96.00;;;;;;5044722;28;20701;-81
2023/08/07 11:44:56;;;;;;;4.88;1.85;;;21.40;96.50;;;;;;5028790;28;20220;-81
2023/08/07 11:47:23;;;;;;;4.88;1.83;;;21.50;96.50;;;;;;5027258;28;20280;-80
2023/08/07 11:49:49;;;;;;;4.93;2.22;;;21.60;97.00;;;;;;5043197;28;20678;-81
2023/08/07 11:52:18;;;;;;;8.80;2.20;;;21.80;96.20;;;;;;5045053;28;20298;-80
2023/08/07 11:54:48;;;;;;;6.68;2.10;;;21.90;95.80;;;;;;5047015;28;20232;-80
2023/08/07 11:57:18;;;;;;;7.80;2.17;;;22.00;96.00;;;;;;5044251;28;20812;-80
2023/08/07 11:59:49;;;;;;;6.28;2.20;;;21.90;95.00;;;;;;5042818;28;20239;-81
2023/08/07 12:02:16;;;;;;;5.78;2.00;;;21.60;94.20;;;;;;5028072;28;20225;-81
2023/08/07 12:04:42;;;;;;;7.68;2.15;;;21.40;93.80;;;;;;5027394;28;20219;-80
2023/08/07 12:07:10;;;;;;;6.03;1.60;;;21.10;93.20;;;;;;5026474;28;20636;-80
2023/08/07 12:09:39;;;;;;;4.55;1.60;;;20.90;93.80;;;;;;5042045;28;20710;-81
2023/08/07 12:12:07;;;;;;;5.15;1.60;;;20.80;94.20;;;;;;5028536;28;20224;-81
2023/08/07 12:14:34;;;;;;;5.78;2.10;;;20.70;94.00;;;;;;5043690;28;20235;-81
2023/08/07 12:17:03;;;;;;;7.65;1.83;;;20.60;94.60;;;;;;5045850;28;20231;-81
2023/08/07 12:19:37;;;;;;;5.40;1.83;;;20.50;95.70;;;;;;5045612;28;20231;-81
2023/08/07 12:22:08;;;;;;;6.72;1.92;;;20.20;95.80;;;;;;5045153;28;20227;-81
2023/08/07 12:24:36;;;;;;;5.22;1.75;;;20.10;96.20;;;;;;5044213;28;20230;-80
2023/08/07 12:27:05;;;;;;;5.38;1.90;;;19.80;95.80;;;;;;5020172;28;20221;-80
2023/08/07 12:29:32;;;;;;;4.82;2.00;;;19.60;96.20;;;;;;5040129;28;20228;-80
2023/08/07 12:32:01;;;;;;;5.75;1.75;;;19.50;96.50;;;;;;5022040;28;20227;-80
2023/08/07 12:34:27;;;;;;;8.45;1.95;;;19.40;96.40;;;;;;5021712;28;20248;-80
2023/08/07 12:36:54;;;;;;;5.10;1.73;;;19.30;96.80;;;;;;5038631;28;20230;-80
2023/08/07 12:39:21;;;;;;;7.00;2.05;;;19.40;97.00;;;;;;5021085;28;20226;-80
2023/08/07 12:41:49;;;;;;;7.53;2.00;;;19.30;97.20;;;;;;5020413;28;20224;-80
2023/08/07 12:44:17;;;;;;;6.88;2.20;;;19.40;97.60;;;;;;5040178;28;20220;-80
2023/08/07 12:46:44;;;;;;;6.85;2.30;;;19.40;97.60;;;;;;5040681;28;20227;-80
2023/08/07 12:49:10;;;;;;;6.28;2.75;;;19.40;99.10;;;;;;5024900;28;20230;-80
2023/08/07 12:51:37;;;;;;;8.68;2.60;;;19.40;99.90;;;;;;5025350;28;20223;-80